sensor_id;sensor_type;location;lat;lon;timestamp;P1;durP1;ratioP1;P2;durP2;ratioP2
7759;SDS011;3924;48.830;9.262;2022-12-11T00:01:23;15.33;;;11.00;;
7759;SDS011;3924;48.830;9.262;2022-12-11T00:03:50;15.03;;;11.30;;
7759;SDS011;3924;48.830;9.262;2022-12-11T00:06:17;16.93;;;9.97;;
7759;SDS011;3924;48.830;9.262;2022-12-11T00:08:45;14.73;;;10.60;;
7759;SDS011;3924;48.830;9.262;2022-12-11T00:11:15;17.80;;;11.73;;
7759;SDS011;3924;48.830;9.262;2022-12-11T00:13:42;16.33;;;11.30;;
7759;SDS011;3924;48.830;9.262;2022-12-11T00:16:08;16.43;;;11.33;;
7759;SDS011;3924;48.830;9.262;2022-12-11T00:18:36;18.87;;;10.77;;
7759;SDS011;3924;48.830;9.262;2022-12-11T00:21:03;18.67;;;11.70;;
7759;SDS011;3924;48.830;9.262;2022-12-11T00:23:31;18.30;;;11.20;;
7759;SDS011;3924;48.830;9.262;2022-12-11T00:26:03;15.73;;;11.07;;
7759;SDS011;3924;48.830;9.262;2022-12-11T00:28:35;16.10;;;10.83;;
7759;SDS011;3924;48.830;9.262;2022-12-11T00:31:05;21.10;;;12.33;;
7759;SDS011;3924;48.830;9.262;2022-12-11T00:33:33;19.30;;;11.60;;
7759;SDS011;3924;48.830;9.262;2022-12-11T00:36:00;15.97;;;10.60;;
7759;SDS011;3924;48.830;9.262;2022-12-11T00:38:26;17.57;;;11.63;;
7759;SDS011;3924;48.830;9.262;2022-12-11T00:40:57;16.33;;;10.63;;
7759;SDS011;3924;48.830;9.262;2022-12-11T00:43:24;15.97;;;10.67;;
7759;SDS011;3924;48.830;9.262;2022-12-11T00:45:51;19.43;;;11.37;;
7759;SDS011;3924;48.830;9.262;2022-12-11T00:48:17;19.30;;;11.23;;
7759;SDS011;3924;48.830;9.262;2022-12-11T00:50:45;15.63;;;10.47;;
7759;SDS011;3924;48.830;9.262;2022-12-11T00:53:11;18.17;;;10.23;;
7759;SDS011;3924;48.830;9.262;2022-12-11T00:55:39;16.00;;;10.80;;
7759;SDS011;3924;48.830;9.262;2022-12-11T00:58:06;16.60;;;10.57;;
7759;SDS011;3924;48.830;9.262;2022-12-11T01:00:34;13.60;;;9.63;;
7759;SDS011;3924;48.830;9.262;2022-12-11T01:03:01;17.07;;;11.43;;
7759;SDS011;3924;48.830;9.262;2022-12-11T01:05:28;15.53;;;10.77;;
7759;SDS011;3924;48.830;9.262;2022-12-11T01:07:55;17.90;;;11.20;;
7759;SDS011;3924;48.830;9.262;2022-12-11T01:10:22;16.77;;;10.43;;
7759;SDS011;3924;48.830;9.262;2022-12-11T01:12:54;21.93;;;13.97;;
7759;SDS011;3924;48.830;9.262;2022-12-11T01:15:44;18.60;;;12.00;;
7759;SDS011;3924;48.830;9.262;2022-12-11T01:18:21;18.57;;;11.90;;
7759;SDS011;3924;48.830;9.262;2022-12-11T01:21:13;17.17;;;10.80;;
7759;SDS011;3924;48.830;9.262;2022-12-11T01:23:59;16.80;;;11.10;;
7759;SDS011;3924;48.830;9.262;2022-12-11T01:31:45;15.70;;;10.27;;
7759;SDS011;3924;48.830;9.262;2022-12-11T01:35:14;14.83;;;10.30;;
7759;SDS011;3924;48.830;9.262;2022-12-11T01:37:50;15.27;;;9.90;;
7759;SDS011;3924;48.830;9.262;2022-12-11T01:40:35;15.63;;;9.77;;
7759;SDS011;3924;48.830;9.262;2022-12-11T01:43:07;13.63;;;10.00;;
7759;SDS011;3924;48.830;9.262;2022-12-11T01:46:26;17.53;;;10.40;;
7759;SDS011;3924;48.830;9.262;2022-12-11T01:49:59;14.30;;;10.33;;
7759;SDS011;3924;48.830;9.262;2022-12-11T02:26:11;11.83;;;9.20;;
7759;SDS011;3924;48.830;9.262;2022-12-11T02:28:48;10.83;;;8.03;;
7759;SDS011;3924;48.830;9.262;2022-12-11T02:31:21;12.80;;;9.23;;
7759;SDS011;3924;48.830;9.262;2022-12-11T02:33:58;12.87;;;9.07;;
7759;SDS011;3924;48.830;9.262;2022-12-11T02:36:28;13.93;;;10.00;;
7759;SDS011;3924;48.830;9.262;2022-12-11T02:38:58;13.30;;;8.90;;
7759;SDS011;3924;48.830;9.262;2022-12-11T02:41:28;12.60;;;8.37;;
7759;SDS011;3924;48.830;9.262;2022-12-11T02:43:56;11.73;;;8.13;;
7759;SDS011;3924;48.830;9.262;2022-12-11T02:46:23;12.97;;;9.07;;
7759;SDS011;3924;48.830;9.262;2022-12-11T02:48:51;13.47;;;8.97;;
7759;SDS011;3924;48.830;9.262;2022-12-11T02:51:21;12.47;;;8.83;;
7759;SDS011;3924;48.830;9.262;2022-12-11T02:53:52;12.63;;;8.80;;
7759;SDS011;3924;48.830;9.262;2022-12-11T02:56:26;14.03;;;9.20;;
7759;SDS011;3924;48.830;9.262;2022-12-11T02:59:03;15.47;;;8.40;;
7759;SDS011;3924;48.830;9.262;2022-12-11T03:01:35;13.53;;;8.43;;
7759;SDS011;3924;48.830;9.262;2022-12-11T03:04:02;12.10;;;7.87;;
7759;SDS011;3924;48.830;9.262;2022-12-11T03:06:32;9.87;;;7.23;;
7759;SDS011;3924;48.830;9.262;2022-12-11T03:09:03;12.17;;;6.73;;
7759;SDS011;3924;48.830;9.262;2022-12-11T03:11:30;8.90;;;6.27;;
7759;SDS011;3924;48.830;9.262;2022-12-11T03:13:57;10.80;;;6.87;;
7759;SDS011;3924;48.830;9.262;2022-12-11T03:16:34;10.77;;;7.73;;
7759;SDS011;3924;48.830;9.262;2022-12-11T03:21:37;10.03;;;6.93;;
7759;SDS011;3924;48.830;9.262;2022-12-11T03:26:58;9.13;;;6.80;;
7759;SDS011;3924;48.830;9.262;2022-12-11T03:29:35;10.63;;;7.70;;
7759;SDS011;3924;48.830;9.262;2022-12-11T03:32:07;11.53;;;7.83;;
7759;SDS011;3924;48.830;9.262;2022-12-11T03:34:41;10.07;;;8.00;;
7759;SDS011;3924;48.830;9.262;2022-12-11T03:37:12;14.87;;;9.13;;
7759;SDS011;3924;48.830;9.262;2022-12-11T03:39:41;9.67;;;8.07;;
7759;SDS011;3924;48.830;9.262;2022-12-11T03:42:12;13.33;;;9.23;;
7759;SDS011;3924;48.830;9.262;2022-12-11T03:44:41;11.77;;;8.47;;
7759;SDS011;3924;48.830;9.262;2022-12-11T03:47:13;14.50;;;9.80;;
7759;SDS011;3924;48.830;9.262;2022-12-11T03:49:43;15.80;;;10.20;;
7759;SDS011;3924;48.830;9.262;2022-12-11T03:52:11;13.80;;;10.00;;
7759;SDS011;3924;48.830;9.262;2022-12-11T03:54:41;14.13;;;10.17;;
7759;SDS011;3924;48.830;9.262;2022-12-11T03:57:11;13.17;;;9.60;;
7759;SDS011;3924;48.830;9.262;2022-12-11T03:59:41;16.83;;;10.43;;
7759;SDS011;3924;48.830;9.262;2022-12-11T04:02:07;14.73;;;10.27;;
7759;SDS011;3924;48.830;9.262;2022-12-11T04:04:39;14.93;;;10.17;;
7759;SDS011;3924;48.830;9.262;2022-12-11T04:07:07;13.50;;;9.70;;
7759;SDS011;3924;48.830;9.262;2022-12-11T04:09:34;14.63;;;10.13;;
7759;SDS011;3924;48.830;9.262;2022-12-11T04:12:00;13.43;;;10.03;;
7759;SDS011;3924;48.830;9.262;2022-12-11T04:14:27;16.77;;;11.03;;
7759;SDS011;3924;48.830;9.262;2022-12-11T04:17:11;13.60;;;9.47;;
7759;SDS011;3924;48.830;9.262;2022-12-11T04:19:58;15.67;;;10.80;;
7759;SDS011;3924;48.830;9.262;2022-12-11T04:22:43;15.47;;;10.20;;
7759;SDS011;3924;48.830;9.262;2022-12-11T04:25:27;13.33;;;9.47;;
7759;SDS011;3924;48.830;9.262;2022-12-11T04:27:54;13.50;;;9.73;;
7759;SDS011;3924;48.830;9.262;2022-12-11T04:30:22;14.70;;;9.47;;
7759;SDS011;3924;48.830;9.262;2022-12-11T04:32:55;12.50;;;8.80;;
7759;SDS011;3924;48.830;9.262;2022-12-11T04:35:22;15.60;;;9.57;;
7759;SDS011;3924;48.830;9.262;2022-12-11T04:37:49;14.57;;;10.50;;
7759;SDS011;3924;48.830;9.262;2022-12-11T04:40:16;16.33;;;10.47;;
7759;SDS011;3924;48.830;9.262;2022-12-11T04:42:43;15.03;;;10.57;;
7759;SDS011;3924;48.830;9.262;2022-12-11T04:45:10;14.57;;;10.00;;
7759;SDS011;3924;48.830;9.262;2022-12-11T04:47:37;14.70;;;9.80;;
7759;SDS011;3924;48.830;9.262;2022-12-11T04:50:06;14.00;;;9.33;;
7759;SDS011;3924;48.830;9.262;2022-12-11T04:52:36;12.47;;;8.90;;
7759;SDS011;3924;48.830;9.262;2022-12-11T04:55:06;12.40;;;9.07;;
7759;SDS011;3924;48.830;9.262;2022-12-11T04:57:33;13.00;;;9.20;;
7759;SDS011;3924;48.830;9.262;2022-12-11T05:00:00;11.97;;;8.80;;
7759;SDS011;3924;48.830;9.262;2022-12-11T05:02:27;12.27;;;7.17;;
7759;SDS011;3924;48.830;9.262;2022-12-11T05:04:53;14.27;;;8.23;;
7759;SDS011;3924;48.830;9.262;2022-12-11T05:07:20;15.60;;;9.40;;
7759;SDS011;3924;48.830;9.262;2022-12-11T05:09:46;15.70;;;9.60;;
7759;SDS011;3924;48.830;9.262;2022-12-11T05:12:13;14.13;;;9.90;;
7759;SDS011;3924;48.830;9.262;2022-12-11T05:14:39;15.07;;;9.93;;
7759;SDS011;3924;48.830;9.262;2022-12-11T05:17:05;13.60;;;10.10;;
7759;SDS011;3924;48.830;9.262;2022-12-11T05:19:32;16.00;;;9.77;;
7759;SDS011;3924;48.830;9.262;2022-12-11T05:21:58;15.20;;;9.93;;
7759;SDS011;3924;48.830;9.262;2022-12-11T05:24:25;15.37;;;10.03;;
7759;SDS011;3924;48.830;9.262;2022-12-11T05:26:51;14.40;;;9.67;;
7759;SDS011;3924;48.830;9.262;2022-12-11T05:29:17;15.10;;;10.03;;
7759;SDS011;3924;48.830;9.262;2022-12-11T05:31:44;13.97;;;9.70;;
7759;SDS011;3924;48.830;9.262;2022-12-11T05:34:10;17.17;;;10.20;;
7759;SDS011;3924;48.830;9.262;2022-12-11T05:36:37;13.53;;;9.90;;
7759;SDS011;3924;48.830;9.262;2022-12-11T05:39:03;15.63;;;10.30;;
7759;SDS011;3924;48.830;9.262;2022-12-11T05:41:30;18.50;;;10.07;;
7759;SDS011;3924;48.830;9.262;2022-12-11T05:43:57;15.30;;;10.23;;
7759;SDS011;3924;48.830;9.262;2022-12-11T05:46:25;13.20;;;9.90;;
7759;SDS011;3924;48.830;9.262;2022-12-11T05:48:54;14.50;;;9.73;;
7759;SDS011;3924;48.830;9.262;2022-12-11T05:51:25;16.70;;;10.47;;
7759;SDS011;3924;48.830;9.262;2022-12-11T05:53:52;18.83;;;11.60;;
7759;SDS011;3924;48.830;9.262;2022-12-11T05:56:21;16.97;;;10.53;;
7759;SDS011;3924;48.830;9.262;2022-12-11T05:58:53;18.53;;;10.70;;
7759;SDS011;3924;48.830;9.262;2022-12-11T06:03:49;18.07;;;11.53;;
7759;SDS011;3924;48.830;9.262;2022-12-11T06:06:16;21.33;;;11.07;;
7759;SDS011;3924;48.830;9.262;2022-12-11T06:08:43;17.17;;;11.63;;
7759;SDS011;3924;48.830;9.262;2022-12-11T06:11:10;17.27;;;11.83;;
7759;SDS011;3924;48.830;9.262;2022-12-11T06:13:39;19.10;;;11.67;;
7759;SDS011;3924;48.830;9.262;2022-12-11T06:16:05;15.90;;;11.57;;
7759;SDS011;3924;48.830;9.262;2022-12-11T06:18:36;21.47;;;13.50;;
7759;SDS011;3924;48.830;9.262;2022-12-11T06:21:11;20.73;;;13.47;;
7759;SDS011;3924;48.830;9.262;2022-12-11T06:23:42;17.10;;;12.37;;
7759;SDS011;3924;48.830;9.262;2022-12-11T06:26:10;19.80;;;12.87;;
7759;SDS011;3924;48.830;9.262;2022-12-11T06:28:37;17.63;;;12.17;;
7759;SDS011;3924;48.830;9.262;2022-12-11T06:31:04;18.13;;;11.07;;
7759;SDS011;3924;48.830;9.262;2022-12-11T06:33:31;18.67;;;12.50;;
7759;SDS011;3924;48.830;9.262;2022-12-11T06:36:04;17.33;;;12.10;;
7759;SDS011;3924;48.830;9.262;2022-12-11T06:38:33;20.63;;;12.60;;
7759;SDS011;3924;48.830;9.262;2022-12-11T06:41:00;17.27;;;11.97;;
7759;SDS011;3924;48.830;9.262;2022-12-11T06:43:33;20.47;;;11.97;;
7759;SDS011;3924;48.830;9.262;2022-12-11T06:46:05;19.47;;;11.87;;
7759;SDS011;3924;48.830;9.262;2022-12-11T06:48:33;22.00;;;11.90;;
7759;SDS011;3924;48.830;9.262;2022-12-11T06:51:21;22.53;;;13.47;;
7759;SDS011;3924;48.830;9.262;2022-12-11T06:53:51;19.63;;;12.87;;
7759;SDS011;3924;48.830;9.262;2022-12-11T06:56:19;22.60;;;13.20;;
7759;SDS011;3924;48.830;9.262;2022-12-11T06:58:45;17.60;;;11.43;;
7759;SDS011;3924;48.830;9.262;2022-12-11T07:01:22;22.10;;;12.13;;
7759;SDS011;3924;48.830;9.262;2022-12-11T07:03:51;17.23;;;11.63;;
7759;SDS011;3924;48.830;9.262;2022-12-11T07:06:19;16.73;;;11.33;;
7759;SDS011;3924;48.830;9.262;2022-12-11T07:08:45;16.30;;;12.13;;
7759;SDS011;3924;48.830;9.262;2022-12-11T07:11:13;18.70;;;12.10;;
7759;SDS011;3924;48.830;9.262;2022-12-11T07:13:41;22.40;;;13.17;;
7759;SDS011;3924;48.830;9.262;2022-12-11T07:16:09;18.07;;;12.83;;
7759;SDS011;3924;48.830;9.262;2022-12-11T07:18:38;21.93;;;14.03;;
7759;SDS011;3924;48.830;9.262;2022-12-11T07:21:07;21.63;;;13.20;;
7759;SDS011;3924;48.830;9.262;2022-12-11T07:23:35;18.80;;;11.70;;
7759;SDS011;3924;48.830;9.262;2022-12-11T07:26:05;19.47;;;12.80;;
7759;SDS011;3924;48.830;9.262;2022-12-11T07:28:33;18.07;;;12.60;;
7759;SDS011;3924;48.830;9.262;2022-12-11T07:31:07;19.97;;;13.23;;
7759;SDS011;3924;48.830;9.262;2022-12-11T07:33:34;19.37;;;12.57;;
7759;SDS011;3924;48.830;9.262;2022-12-11T07:36:02;18.17;;;12.17;;
7759;SDS011;3924;48.830;9.262;2022-12-11T07:38:29;19.63;;;12.00;;
7759;SDS011;3924;48.830;9.262;2022-12-11T07:41:00;23.77;;;12.27;;
7759;SDS011;3924;48.830;9.262;2022-12-11T07:43:27;18.93;;;12.37;;
7759;SDS011;3924;48.830;9.262;2022-12-11T07:45:54;21.63;;;12.77;;
7759;SDS011;3924;48.830;9.262;2022-12-11T07:48:20;21.63;;;14.00;;
7759;SDS011;3924;48.830;9.262;2022-12-11T07:50:46;19.40;;;10.97;;
7759;SDS011;3924;48.830;9.262;2022-12-11T07:53:13;19.40;;;12.90;;
7759;SDS011;3924;48.830;9.262;2022-12-11T07:55:39;21.07;;;12.00;;
7759;SDS011;3924;48.830;9.262;2022-12-11T07:58:06;18.70;;;13.20;;
7759;SDS011;3924;48.830;9.262;2022-12-11T08:00:32;16.43;;;11.27;;
7759;SDS011;3924;48.830;9.262;2022-12-11T08:02:58;18.93;;;12.23;;
7759;SDS011;3924;48.830;9.262;2022-12-11T08:05:25;19.47;;;11.67;;
7759;SDS011;3924;48.830;9.262;2022-12-11T08:07:51;19.63;;;12.20;;
7759;SDS011;3924;48.830;9.262;2022-12-11T08:10:18;23.70;;;13.60;;
7759;SDS011;3924;48.830;9.262;2022-12-11T08:12:44;14.90;;;11.10;;
7759;SDS011;3924;48.830;9.262;2022-12-11T08:15:10;19.30;;;12.00;;
7759;SDS011;3924;48.830;9.262;2022-12-11T08:17:37;17.53;;;10.93;;
7759;SDS011;3924;48.830;9.262;2022-12-11T08:20:05;17.87;;;11.93;;
7759;SDS011;3924;48.830;9.262;2022-12-11T08:22:33;18.10;;;10.97;;
7759;SDS011;3924;48.830;9.262;2022-12-11T08:24:59;25.67;;;11.80;;
7759;SDS011;3924;48.830;9.262;2022-12-11T08:27:26;18.27;;;12.10;;
7759;SDS011;3924;48.830;9.262;2022-12-11T08:29:52;17.07;;;11.93;;
7759;SDS011;3924;48.830;9.262;2022-12-11T08:32:18;18.10;;;11.63;;
7759;SDS011;3924;48.830;9.262;2022-12-11T08:34:45;22.23;;;12.60;;
7759;SDS011;3924;48.830;9.262;2022-12-11T08:37:11;16.73;;;11.07;;
7759;SDS011;3924;48.830;9.262;2022-12-11T08:39:38;15.40;;;9.90;;
7759;SDS011;3924;48.830;9.262;2022-12-11T08:42:05;13.97;;;8.90;;
7759;SDS011;3924;48.830;9.262;2022-12-11T08:44:32;13.30;;;9.63;;
7759;SDS011;3924;48.830;9.262;2022-12-11T08:46:58;17.10;;;11.30;;
7759;SDS011;3924;48.830;9.262;2022-12-11T08:49:25;17.60;;;12.23;;
7759;SDS011;3924;48.830;9.262;2022-12-11T08:51:57;15.00;;;11.17;;
7759;SDS011;3924;48.830;9.262;2022-12-11T08:54:24;17.47;;;11.43;;
7759;SDS011;3924;48.830;9.262;2022-12-11T08:56:51;18.37;;;12.27;;
7759;SDS011;3924;48.830;9.262;2022-12-11T08:59:23;18.30;;;11.47;;
7759;SDS011;3924;48.830;9.262;2022-12-11T09:01:51;18.47;;;11.17;;
7759;SDS011;3924;48.830;9.262;2022-12-11T09:04:17;18.93;;;12.60;;
7759;SDS011;3924;48.830;9.262;2022-12-11T09:06:44;17.70;;;10.73;;
7759;SDS011;3924;48.830;9.262;2022-12-11T09:09:10;14.97;;;9.90;;
7759;SDS011;3924;48.830;9.262;2022-12-11T09:11:37;22.37;;;11.97;;
7759;SDS011;3924;48.830;9.262;2022-12-11T09:14:04;16.37;;;11.10;;
7759;SDS011;3924;48.830;9.262;2022-12-11T09:16:33;19.07;;;11.40;;
7759;SDS011;3924;48.830;9.262;2022-12-11T09:19:03;19.63;;;12.10;;
7759;SDS011;3924;48.830;9.262;2022-12-11T09:21:29;18.37;;;10.27;;
7759;SDS011;3924;48.830;9.262;2022-12-11T09:23:57;17.33;;;11.30;;
7759;SDS011;3924;48.830;9.262;2022-12-11T09:26:25;16.57;;;10.60;;
7759;SDS011;3924;48.830;9.262;2022-12-11T09:28:53;17.23;;;12.37;;
7759;SDS011;3924;48.830;9.262;2022-12-11T09:31:21;17.87;;;11.73;;
7759;SDS011;3924;48.830;9.262;2022-12-11T09:33:50;20.13;;;12.53;;
7759;SDS011;3924;48.830;9.262;2022-12-11T09:36:19;16.70;;;10.87;;
7759;SDS011;3924;48.830;9.262;2022-12-11T09:38:45;17.97;;;12.33;;
7759;SDS011;3924;48.830;9.262;2022-12-11T09:46:44;17.93;;;11.03;;
7759;SDS011;3924;48.830;9.262;2022-12-11T09:52:14;17.17;;;11.47;;
7759;SDS011;3924;48.830;9.262;2022-12-11T09:54:52;17.77;;;11.57;;
7759;SDS011;3924;48.830;9.262;2022-12-11T09:57:46;18.87;;;12.13;;
7759;SDS011;3924;48.830;9.262;2022-12-11T10:00:40;18.93;;;11.93;;
7759;SDS011;3924;48.830;9.262;2022-12-11T10:06:08;18.40;;;11.83;;
7759;SDS011;3924;48.830;9.262;2022-12-11T10:14:17;17.83;;;11.50;;
7759;SDS011;3924;48.830;9.262;2022-12-11T10:16:51;16.83;;;10.83;;
7759;SDS011;3924;48.830;9.262;2022-12-11T10:19:26;20.97;;;11.57;;
7759;SDS011;3924;48.830;9.262;2022-12-11T10:21:55;18.73;;;11.53;;
7759;SDS011;3924;48.830;9.262;2022-12-11T10:27:23;14.57;;;10.30;;
7759;SDS011;3924;48.830;9.262;2022-12-11T10:35:24;11.43;;;8.47;;
7759;SDS011;3924;48.830;9.262;2022-12-11T10:38:16;13.20;;;9.20;;
7759;SDS011;3924;48.830;9.262;2022-12-11T10:40:51;12.20;;;8.80;;
7759;SDS011;3924;48.830;9.262;2022-12-11T10:43:30;20.77;;;9.10;;
7759;SDS011;3924;48.830;9.262;2022-12-11T10:46:27;12.43;;;8.10;;
7759;SDS011;3924;48.830;9.262;2022-12-11T10:48:56;12.23;;;8.53;;
7759;SDS011;3924;48.830;9.262;2022-12-11T10:51:34;13.13;;;8.73;;
7759;SDS011;3924;48.830;9.262;2022-12-11T10:54:05;11.83;;;8.47;;
7759;SDS011;3924;48.830;9.262;2022-12-11T10:56:34;12.87;;;8.23;;
7759;SDS011;3924;48.830;9.262;2022-12-11T10:59:03;14.43;;;9.00;;
7759;SDS011;3924;48.830;9.262;2022-12-11T11:01:30;15.30;;;8.43;;
7759;SDS011;3924;48.830;9.262;2022-12-11T11:06:24;21.13;;;10.43;;
7759;SDS011;3924;48.830;9.262;2022-12-11T11:08:57;21.47;;;9.23;;
7759;SDS011;3924;48.830;9.262;2022-12-11T11:11:27;18.00;;;9.67;;
7759;SDS011;3924;48.830;9.262;2022-12-11T11:14:15;15.97;;;10.10;;
7759;SDS011;3924;48.830;9.262;2022-12-11T11:16:46;13.67;;;9.63;;
7759;SDS011;3924;48.830;9.262;2022-12-11T11:19:18;13.50;;;9.37;;
7759;SDS011;3924;48.830;9.262;2022-12-11T11:22:10;14.97;;;9.57;;
7759;SDS011;3924;48.830;9.262;2022-12-11T11:24:45;250.37;;;24.90;;
7759;SDS011;3924;48.830;9.262;2022-12-11T11:30:18;17.57;;;11.33;;
7759;SDS011;3924;48.830;9.262;2022-12-11T11:32:49;17.47;;;10.47;;
7759;SDS011;3924;48.830;9.262;2022-12-11T11:35:22;34.60;;;10.93;;
7759;SDS011;3924;48.830;9.262;2022-12-11T11:38:02;47.47;;;12.03;;
7759;SDS011;3924;48.830;9.262;2022-12-11T11:40:43;35.87;;;10.83;;
7759;SDS011;3924;48.830;9.262;2022-12-11T11:43:17;15.47;;;10.50;;
7759;SDS011;3924;48.830;9.262;2022-12-11T11:45:56;45.08;;;13.43;;
7759;SDS011;3924;48.830;9.262;2022-12-11T11:51:13;17.53;;;10.93;;
7759;SDS011;3924;48.830;9.262;2022-12-11T11:53:47;15.30;;;8.97;;
7759;SDS011;3924;48.830;9.262;2022-12-11T11:56:26;15.73;;;10.60;;
7759;SDS011;3924;48.830;9.262;2022-12-11T12:01:42;15.07;;;9.97;;
7759;SDS011;3924;48.830;9.262;2022-12-11T12:04:11;15.03;;;10.67;;
7759;SDS011;3924;48.830;9.262;2022-12-11T12:06:59;12.50;;;9.17;;
7759;SDS011;3924;48.830;9.262;2022-12-11T12:09:52;17.90;;;10.73;;
7759;SDS011;3924;48.830;9.262;2022-12-11T12:18:06;18.53;;;11.23;;
7759;SDS011;3924;48.830;9.262;2022-12-11T12:23:35;17.43;;;10.90;;
7759;SDS011;3924;48.830;9.262;2022-12-11T12:36:49;19.60;;;11.17;;
7759;SDS011;3924;48.830;9.262;2022-12-11T12:39:32;17.25;;;13.00;;
7759;SDS011;3924;48.830;9.262;2022-12-11T12:45:00;15.30;;;10.57;;
7759;SDS011;3924;48.830;9.262;2022-12-11T12:47:39;15.17;;;10.37;;
7759;SDS011;3924;48.830;9.262;2022-12-11T12:50:13;16.73;;;10.63;;
7759;SDS011;3924;48.830;9.262;2022-12-11T12:52:42;13.40;;;8.63;;
7759;SDS011;3924;48.830;9.262;2022-12-11T12:57:44;14.67;;;10.07;;
7759;SDS011;3924;48.830;9.262;2022-12-11T13:03:02;17.17;;;10.43;;
7759;SDS011;3924;48.830;9.262;2022-12-11T13:05:40;11.80;;;8.40;;
7759;SDS011;3924;48.830;9.262;2022-12-11T13:08:08;15.00;;;10.67;;
7759;SDS011;3924;48.830;9.262;2022-12-11T13:10:36;16.80;;;10.47;;
7759;SDS011;3924;48.830;9.262;2022-12-11T13:13:24;14.90;;;10.03;;
7759;SDS011;3924;48.830;9.262;2022-12-11T13:16:04;17.93;;;10.57;;
7759;SDS011;3924;48.830;9.262;2022-12-11T13:18:36;18.30;;;9.27;;
7759;SDS011;3924;48.830;9.262;2022-12-11T13:24:15;16.43;;;9.37;;
7759;SDS011;3924;48.830;9.262;2022-12-11T13:26:44;14.97;;;9.57;;
7759;SDS011;3924;48.830;9.262;2022-12-11T13:34:38;20.37;;;10.63;;
7759;SDS011;3924;48.830;9.262;2022-12-11T13:37:26;17.03;;;10.63;;
7759;SDS011;3924;48.830;9.262;2022-12-11T13:39:58;17.70;;;10.43;;
7759;SDS011;3924;48.830;9.262;2022-12-11T13:42:38;21.17;;;11.40;;
7759;SDS011;3924;48.830;9.262;2022-12-11T13:45:22;19.23;;;12.00;;
7759;SDS011;3924;48.830;9.262;2022-12-11T13:47:53;20.80;;;12.33;;
7759;SDS011;3924;48.830;9.262;2022-12-11T13:50:28;20.90;;;11.77;;
7759;SDS011;3924;48.830;9.262;2022-12-11T13:53:00;24.37;;;13.30;;
7759;SDS011;3924;48.830;9.262;2022-12-11T13:55:29;21.43;;;13.23;;
7759;SDS011;3924;48.830;9.262;2022-12-11T13:57:57;20.40;;;11.80;;
7759;SDS011;3924;48.830;9.262;2022-12-11T14:00:26;22.70;;;13.30;;
7759;SDS011;3924;48.830;9.262;2022-12-11T14:02:55;15.47;;;9.07;;
7759;SDS011;3924;48.830;9.262;2022-12-11T14:05:25;15.67;;;10.47;;
7759;SDS011;3924;48.830;9.262;2022-12-11T14:07:53;22.70;;;14.00;;
7759;SDS011;3924;48.830;9.262;2022-12-11T14:10:26;22.53;;;13.63;;
7759;SDS011;3924;48.830;9.262;2022-12-11T14:13:02;22.60;;;12.70;;
7759;SDS011;3924;48.830;9.262;2022-12-11T14:15:31;28.13;;;17.37;;
7759;SDS011;3924;48.830;9.262;2022-12-11T14:18:01;20.27;;;13.17;;
7759;SDS011;3924;48.830;9.262;2022-12-11T14:20:30;19.13;;;11.93;;
7759;SDS011;3924;48.830;9.262;2022-12-11T14:23:15;21.93;;;13.03;;
7759;SDS011;3924;48.830;9.262;2022-12-11T14:28:42;22.30;;;13.00;;
7759;SDS011;3924;48.830;9.262;2022-12-11T14:31:09;20.67;;;12.43;;
7759;SDS011;3924;48.830;9.262;2022-12-11T14:33:42;20.70;;;13.13;;
7759;SDS011;3924;48.830;9.262;2022-12-11T14:36:12;21.83;;;12.20;;
7759;SDS011;3924;48.830;9.262;2022-12-11T14:38:42;20.47;;;12.03;;
7759;SDS011;3924;48.830;9.262;2022-12-11T14:41:16;23.07;;;12.50;;
7759;SDS011;3924;48.830;9.262;2022-12-11T14:43:47;26.40;;;14.40;;
7759;SDS011;3924;48.830;9.262;2022-12-11T14:46:24;21.27;;;12.20;;
7759;SDS011;3924;48.830;9.262;2022-12-11T14:49:31;21.90;;;13.33;;
7759;SDS011;3924;48.830;9.262;2022-12-11T14:52:08;22.37;;;13.93;;
7759;SDS011;3924;48.830;9.262;2022-12-11T14:54:46;22.03;;;12.87;;
7759;SDS011;3924;48.830;9.262;2022-12-11T14:57:19;24.97;;;14.20;;
7759;SDS011;3924;48.830;9.262;2022-12-11T14:59:48;22.23;;;12.27;;
7759;SDS011;3924;48.830;9.262;2022-12-11T15:02:31;22.07;;;13.20;;
7759;SDS011;3924;48.830;9.262;2022-12-11T15:05:00;22.80;;;12.23;;
7759;SDS011;3924;48.830;9.262;2022-12-11T15:08:14;24.30;;;13.00;;
7759;SDS011;3924;48.830;9.262;2022-12-11T15:13:26;26.80;;;14.27;;
7759;SDS011;3924;48.830;9.262;2022-12-11T15:15:54;25.43;;;13.73;;
7759;SDS011;3924;48.830;9.262;2022-12-11T15:18:23;23.70;;;14.50;;
7759;SDS011;3924;48.830;9.262;2022-12-11T15:20:54;25.10;;;14.43;;
7759;SDS011;3924;48.830;9.262;2022-12-11T15:23:23;24.67;;;13.37;;
7759;SDS011;3924;48.830;9.262;2022-12-11T15:25:51;22.67;;;13.97;;
7759;SDS011;3924;48.830;9.262;2022-12-11T15:28:27;22.80;;;12.87;;
7759;SDS011;3924;48.830;9.262;2022-12-11T15:31:22;23.97;;;13.67;;
7759;SDS011;3924;48.830;9.262;2022-12-11T15:33:50;27.10;;;14.70;;
7759;SDS011;3924;48.830;9.262;2022-12-11T15:36:18;22.63;;;14.33;;
7759;SDS011;3924;48.830;9.262;2022-12-11T15:38:49;22.50;;;13.37;;
7759;SDS011;3924;48.830;9.262;2022-12-11T15:41:16;23.57;;;13.67;;
7759;SDS011;3924;48.830;9.262;2022-12-11T15:43:53;23.70;;;13.97;;
7759;SDS011;3924;48.830;9.262;2022-12-11T15:46:24;24.03;;;13.17;;
7759;SDS011;3924;48.830;9.262;2022-12-11T15:48:51;22.87;;;12.33;;
7759;SDS011;3924;48.830;9.262;2022-12-11T15:51:17;22.20;;;13.57;;
7759;SDS011;3924;48.830;9.262;2022-12-11T15:53:44;25.40;;;13.97;;
7759;SDS011;3924;48.830;9.262;2022-12-11T15:56:14;26.17;;;13.67;;
7759;SDS011;3924;48.830;9.262;2022-12-11T15:58:44;25.33;;;13.93;;
7759;SDS011;3924;48.830;9.262;2022-12-11T16:01:12;22.70;;;13.10;;
7759;SDS011;3924;48.830;9.262;2022-12-11T16:03:39;22.77;;;13.43;;
7759;SDS011;3924;48.830;9.262;2022-12-11T16:06:05;20.77;;;13.33;;
7759;SDS011;3924;48.830;9.262;2022-12-11T16:08:37;20.77;;;12.47;;
7759;SDS011;3924;48.830;9.262;2022-12-11T16:11:03;26.00;;;14.23;;
7759;SDS011;3924;48.830;9.262;2022-12-11T16:13:30;21.20;;;11.80;;
7759;SDS011;3924;48.830;9.262;2022-12-11T16:15:56;24.40;;;13.60;;
7759;SDS011;3924;48.830;9.262;2022-12-11T16:18:23;25.03;;;13.60;;
7759;SDS011;3924;48.830;9.262;2022-12-11T16:20:51;21.53;;;12.97;;
7759;SDS011;3924;48.830;9.262;2022-12-11T16:23:17;23.73;;;14.07;;
7759;SDS011;3924;48.830;9.262;2022-12-11T16:25:44;19.37;;;13.20;;
7759;SDS011;3924;48.830;9.262;2022-12-11T16:28:12;25.97;;;14.77;;
7759;SDS011;3924;48.830;9.262;2022-12-11T16:30:41;25.33;;;13.90;;
7759;SDS011;3924;48.830;9.262;2022-12-11T16:33:08;20.27;;;12.43;;
7759;SDS011;3924;48.830;9.262;2022-12-11T16:35:38;20.67;;;12.37;;
7759;SDS011;3924;48.830;9.262;2022-12-11T16:38:06;22.87;;;13.10;;
7759;SDS011;3924;48.830;9.262;2022-12-11T16:40:33;22.23;;;13.07;;
7759;SDS011;3924;48.830;9.262;2022-12-11T16:42:59;25.43;;;13.40;;
7759;SDS011;3924;48.830;9.262;2022-12-11T16:45:27;22.60;;;13.80;;
7759;SDS011;3924;48.830;9.262;2022-12-11T16:47:53;22.43;;;14.10;;
7759;SDS011;3924;48.830;9.262;2022-12-11T16:50:20;23.87;;;13.83;;
7759;SDS011;3924;48.830;9.262;2022-12-11T16:52:47;20.70;;;13.10;;
7759;SDS011;3924;48.830;9.262;2022-12-11T16:55:14;22.57;;;13.20;;
7759;SDS011;3924;48.830;9.262;2022-12-11T16:57:41;21.97;;;14.10;;
7759;SDS011;3924;48.830;9.262;2022-12-11T17:00:08;20.77;;;12.90;;
7759;SDS011;3924;48.830;9.262;2022-12-11T17:02:37;24.50;;;13.90;;
7759;SDS011;3924;48.830;9.262;2022-12-11T17:07:41;28.83;;;16.07;;
7759;SDS011;3924;48.830;9.262;2022-12-11T17:10:08;25.73;;;14.70;;
7759;SDS011;3924;48.830;9.262;2022-12-11T17:12:34;26.07;;;15.30;;
7759;SDS011;3924;48.830;9.262;2022-12-11T17:15:01;22.53;;;14.63;;
7759;SDS011;3924;48.830;9.262;2022-12-11T17:17:27;28.30;;;13.50;;
7759;SDS011;3924;48.830;9.262;2022-12-11T17:19:54;24.93;;;13.53;;
7759;SDS011;3924;48.830;9.262;2022-12-11T17:22:20;22.43;;;12.50;;